createdAt,value
2024-02-03T00:00:42.649Z,101490.31
2024-02-03T00:03:10.151Z,101480.72
2024-02-03T00:05:37.482Z,101484.31
2024-02-03T00:08:05.456Z,101484.53
2024-02-03T00:10:32.876Z,101482.84
2024-02-03T00:13:00.398Z,101480.34
2024-02-03T00:15:29.445Z,101495.13
2024-02-03T00:17:56.897Z,101479.88
2024-02-03T00:20:24.277Z,101488.41
2024-02-03T00:22:51.746Z,101493.81
2024-02-03T00:25:19.197Z,101487.22
2024-02-03T00:27:46.645Z,101474.72
2024-02-03T00:30:14.372Z,101482.66
2024-02-03T00:32:43.279Z,101470.63
2024-02-03T00:35:10.714Z,101481.81
2024-02-03T00:37:38.011Z,101471.09
2024-02-03T00:40:06.396Z,101478.19
2024-02-03T00:42:33.936Z,101466.31
2024-02-03T00:45:01.337Z,101477.38
2024-02-03T00:47:28.773Z,101483.38
2024-02-03T00:49:57.571Z,101479.78
2024-02-03T00:52:24.945Z,101472.56
2024-02-03T00:54:52.312Z,101485.56
2024-02-03T00:57:19.770Z,101476.06
2024-02-03T00:59:47.135Z,101487.72
2024-02-03T01:02:14.610Z,101483.88
2024-02-03T01:04:42.146Z,101485.56
2024-02-03T01:07:10.941Z,101484.38
2024-02-03T01:09:38.334Z,101484.38
2024-02-03T01:12:06.394Z,101488.44
2024-02-03T01:14:34.118Z,101491.47
2024-02-03T01:17:01.590Z,101486.53
2024-02-03T01:19:29.103Z,101479.78
2024-02-03T01:21:56.605Z,101470.88
2024-02-03T01:24:27.898Z,101479.19
2024-02-03T01:26:55.336Z,101489.78
2024-02-03T01:29:22.719Z,101476.06
2024-02-03T01:31:50.083Z,101463.56
2024-02-03T01:34:17.472Z,101485.56
2024-02-03T01:36:45.987Z,101481.47
2024-02-03T01:39:13.688Z,101472.56
2024-02-03T01:41:42.477Z,101464.63
2024-02-03T01:44:11.768Z,101473.78
2024-02-03T01:46:40.158Z,101471.25
2024-02-03T01:49:08.978Z,101475.69
2024-02-03T01:51:36.750Z,101481.44
2024-02-03T01:54:04.349Z,101477.94
2024-02-03T01:56:34.855Z,101478.78
2024-02-03T01:59:07.295Z,101483.84
2024-02-03T02:01:34.974Z,101474.94
2024-02-03T02:04:02.730Z,101471.09
2024-02-03T02:06:31.344Z,101479.75
2024-02-03T02:08:58.941Z,101480.00
2024-02-03T02:11:29.262Z,101476.16
2024-02-03T02:13:56.794Z,101471.69
2024-02-03T02:16:25.622Z,101472.88
2024-02-03T02:18:53.144Z,101471.81
2024-02-03T02:21:21.966Z,101459.78
2024-02-03T02:23:50.002Z,101466.50
2024-02-03T02:26:17.378Z,101470.56
2024-02-03T02:28:45.014Z,101482.13
2024-02-03T02:31:12.370Z,101470.72
2024-02-03T02:33:39.867Z,101457.91
2024-02-03T02:36:08.755Z,101466.56
2024-02-03T02:38:37.755Z,101458.25
2024-02-03T02:41:05.151Z,101453.09
2024-02-03T02:43:32.770Z,101454.41
2024-02-03T02:46:00.066Z,101445.63
2024-02-03T02:48:27.506Z,101450.06
2024-02-03T02:50:55.209Z,101432.38
2024-02-03T02:53:22.660Z,101451.88
2024-02-03T02:55:51.350Z,101445.75
2024-02-03T02:58:18.705Z,101439.34
2024-02-03T03:00:46.178Z,101450.66
2024-02-03T03:03:13.603Z,101456.81
2024-02-03T03:05:41.001Z,101457.53
2024-02-03T03:08:08.445Z,101453.91
2024-02-03T03:10:35.905Z,101440.66
2024-02-03T03:13:05.625Z,101439.28
2024-02-03T03:15:34.509Z,101436.81
2024-02-03T03:18:02.042Z,101436.66
2024-02-03T03:20:31.869Z,101434.28
2024-02-03T03:22:59.187Z,101429.81
2024-02-03T03:25:26.496Z,101432.19
2024-02-03T03:27:53.864Z,101437.78
2024-02-03T03:30:22.600Z,101440.22
2024-02-03T03:32:50.026Z,101442.53
2024-02-03T03:35:17.412Z,101436.28
2024-02-03T03:37:44.680Z,101434.78
2024-02-03T03:40:12.346Z,101433.69
2024-02-03T03:42:39.967Z,101436.47
2024-02-03T03:45:08.122Z,101448.50
2024-02-03T03:47:36.670Z,101448.00
2024-02-03T03:50:04.557Z,101450.91
2024-02-03T03:52:31.878Z,101440.06
2024-02-03T03:54:59.227Z,101442.69
2024-02-03T03:57:26.526Z,101447.16
2024-02-03T03:59:53.890Z,101447.53
2024-02-03T04:02:21.200Z,101460.06
2024-02-03T04:04:50.458Z,101439.13
2024-02-03T04:07:20.419Z,101443.72
2024-02-03T04:09:47.807Z,101438.41
2024-02-03T04:12:15.311Z,101449.72
2024-02-03T04:14:42.676Z,101455.28
2024-02-03T04:17:10.158Z,101454.56
2024-02-03T04:19:37.766Z,101451.19
2024-02-03T04:22:07.066Z,101459.25
2024-02-03T04:24:34.490Z,101444.75
2024-02-03T04:27:01.896Z,101450.16
2024-02-03T04:29:29.180Z,101443.38
2024-02-03T04:31:56.520Z,101450.22
2024-02-03T04:34:24.084Z,101447.81
2024-02-03T04:36:51.600Z,101449.13
2024-02-03T04:39:20.284Z,101457.81
2024-02-03T04:41:47.639Z,101444.94
2024-02-03T04:44:14.921Z,101442.28
2024-02-03T04:46:42.221Z,101433.69
2024-02-03T04:49:09.707Z,101438.16
2024-02-03T04:51:37.159Z,101438.88
2024-02-03T04:54:05.053Z,101441.28
2024-02-03T04:56:33.814Z,101444.63
2024-02-03T04:59:01.110Z,101439.63
2024-02-03T05:01:28.487Z,101443.84
2024-02-03T05:03:55.889Z,101446.25
2024-02-03T05:06:23.366Z,101437.31
2024-02-03T05:08:50.749Z,101436.34
2024-02-03T05:11:18.076Z,101438.63
2024-02-03T05:13:47.070Z,101440.31
2024-02-03T05:16:14.388Z,101437.28
2024-02-03T05:18:41.849Z,101440.38
2024-02-03T05:21:09.223Z,101438.41
2024-02-03T05:23:36.551Z,101452.63
2024-02-03T05:26:04.033Z,101447.63
2024-02-03T05:28:31.354Z,101445.94
2024-02-03T05:31:00.057Z,101447.63
2024-02-03T05:33:27.554Z,101456.41
2024-02-03T05:35:55.504Z,101451.81
2024-02-03T05:38:22.963Z,101449.28
2024-02-03T05:40:50.725Z,101444.69
2024-02-03T05:43:17.989Z,101454.28
2024-02-03T05:45:45.429Z,101447.53
2024-02-03T05:48:14.184Z,101448.38
2024-02-03T05:50:41.467Z,101445.59
2024-02-03T05:53:09.054Z,101454.06
2024-02-03T05:55:36.471Z,101452.75
2024-02-03T05:58:03.859Z,101449.16
2024-02-03T06:00:31.199Z,101446.88
2024-02-03T06:02:58.609Z,101456.66
2024-02-03T06:05:27.357Z,101456.66
2024-02-03T06:07:54.827Z,101451.63
2024-02-03T06:10:22.289Z,101446.31
2024-02-03T06:12:49.687Z,101448.44
2024-02-03T06:15:17.270Z,101449.53
2024-02-03T06:17:44.613Z,101454.00
2024-02-03T06:20:12.667Z,101451.78
2024-02-03T06:22:41.333Z,101456.84
2024-02-03T06:25:08.940Z,101456.84
2024-02-03T06:27:36.234Z,101450.69
2024-02-03T06:30:03.800Z,101452.38
2024-02-03T06:32:31.205Z,101450.31
2024-02-03T06:34:58.701Z,101447.41
2024-02-03T06:37:26.128Z,101450.78
2024-02-03T06:39:54.826Z,101450.31
2024-02-03T06:42:22.159Z,101451.75
2024-02-03T06:44:51.812Z,101454.84
2024-02-03T06:47:20.485Z,101443.78
2024-02-03T06:49:48.054Z,101450.78
2024-02-03T06:52:15.427Z,101458.72
2024-02-03T06:54:42.888Z,101447.16
2024-02-03T06:57:11.685Z,101460.41
2024-02-03T06:59:39.026Z,101457.31
2024-02-03T07:02:06.724Z,101465.47
2024-02-03T07:04:34.062Z,101463.06
2024-02-03T07:07:01.385Z,101464.41
2024-02-03T07:09:28.788Z,101475.72
2024-02-03T07:12:01.388Z,101467.25
2024-02-03T07:14:35.941Z,101456.59
2024-02-03T07:17:03.414Z,101466.22
2024-02-03T07:19:30.946Z,101471.53
2024-02-03T07:21:58.510Z,101469.00
2024-02-03T07:24:25.837Z,101468.88
2024-02-03T07:26:53.219Z,101479.69
2024-02-03T07:29:20.517Z,101471.97
2024-02-03T07:31:49.134Z,101478.38
2024-02-03T07:34:16.681Z,101481.28
2024-02-03T07:36:44.154Z,101484.91
2024-02-03T07:39:11.476Z,101491.53
2024-02-03T07:41:38.757Z,101491.66
2024-02-03T07:44:06.090Z,101491.41
2024-02-03T07:46:34.088Z,101490.97
2024-02-03T07:49:02.992Z,101495.28
2024-02-03T07:51:30.450Z,101496.13
2024-02-03T07:53:57.863Z,101498.78
2024-02-03T07:56:25.224Z,101502.16
2024-02-03T07:58:52.874Z,101492.50
2024-02-03T08:01:20.470Z,101501.91
2024-02-03T08:03:48.225Z,101492.63
2024-02-03T08:06:16.992Z,101500.47
2024-02-03T08:08:44.366Z,101500.47
2024-02-03T08:11:11.668Z,101506.00
2024-02-03T08:13:39.028Z,101501.72
2024-02-03T08:16:07.959Z,101501.25
2024-02-03T08:18:35.353Z,101489.81
2024-02-03T08:21:03.489Z,101498.72
2024-02-03T08:23:32.113Z,101492.09
2024-02-03T08:25:59.500Z,101494.50
2024-02-03T08:28:26.889Z,101482.69
2024-02-03T08:30:54.289Z,101481.47
2024-02-03T08:33:21.815Z,101490.19
2024-02-03T08:35:49.298Z,101482.47
2024-02-03T08:38:16.604Z,101478.38
2024-02-03T08:40:45.451Z,101472.09
2024-02-03T08:43:12.757Z,101480.50
2024-02-03T08:45:40.101Z,101486.97
2024-02-03T08:48:07.884Z,101489.09
2024-02-03T08:50:35.283Z,101489.56
2024-02-03T08:53:02.639Z,101492.94
2024-02-03T08:55:30.041Z,101487.50
2024-02-03T08:57:58.815Z,101473.28
2024-02-03T09:00:26.333Z,101472.75
2024-02-03T09:02:53.734Z,101485.63
2024-02-03T09:05:21.086Z,101484.38
2024-02-03T09:07:48.405Z,101480.78
2024-02-03T09:10:15.721Z,101475.22
2024-02-03T09:12:43.065Z,101480.72
2024-02-03T09:15:11.862Z,101485.72
2024-02-03T09:17:39.156Z,101501.94
2024-02-03T09:20:07.635Z,101511.41
2024-02-03T09:22:35.046Z,101509.59
2024-02-03T09:25:02.387Z,101503.72
2024-02-03T09:27:29.805Z,101494.13
2024-02-03T09:29:57.273Z,101502.41
2024-02-03T09:32:25.972Z,101504.94
2024-02-03T09:34:53.345Z,101502.81
2024-02-03T09:39:50.880Z,101511.47
2024-02-03T09:42:18.558Z,101508.44
2024-02-03T09:44:46.720Z,101525.19
2024-02-03T09:47:13.839Z,101528.22
2024-02-03T09:49:43.830Z,101525.66
2024-02-03T09:52:11.661Z,101527.97
2024-02-03T09:54:39.075Z,101518.41
2024-02-03T09:57:06.447Z,101508.16
2024-02-03T09:59:33.679Z,101523.69
2024-02-03T10:02:00.962Z,101524.41
2024-02-03T10:04:37.401Z,101518.00
2024-02-03T10:07:06.146Z,101523.06
2024-02-03T10:10:51.698Z,101530.38
2024-02-03T10:12:22.700Z,101529.31
2024-02-03T10:14:59.975Z,101525.69
2024-02-03T10:17:27.490Z,101512.19
2024-02-03T10:19:54.911Z,101516.38
2024-02-03T10:22:23.663Z,101511.41
2024-02-03T10:24:51.126Z,101516.66
2024-02-03T10:27:22.883Z,101503.13
2024-02-03T10:29:53.908Z,101500.19
2024-02-03T10:32:21.324Z,101499.81
2024-02-03T10:34:49.334Z,101500.13
2024-02-03T10:37:16.759Z,101506.66
2024-02-03T10:39:45.529Z,101501.25
2024-02-03T10:42:19.844Z,101496.69
2024-02-03T10:44:48.127Z,101501.72
2024-02-03T10:47:20.568Z,101500.53
2024-02-03T10:49:49.654Z,101499.28
2024-02-03T10:52:19.687Z,101507.06
2024-02-03T10:54:54.785Z,101504.69
2024-02-03T10:57:24.114Z,101512.91
2024-02-03T10:59:51.503Z,101507.88
2024-02-03T11:02:18.904Z,101505.34
2024-02-03T11:04:48.713Z,101501.47
2024-02-03T11:07:26.670Z,101505.94
2024-02-03T11:09:56.733Z,101502.69
2024-02-03T11:12:24.219Z,101502.56
2024-02-03T11:14:51.584Z,101500.63
2024-02-03T11:17:18.990Z,101509.56
2024-02-03T11:19:47.067Z,101503.28
2024-02-03T11:22:16.409Z,101514.31
2024-02-03T11:24:44.596Z,101517.53
2024-02-03T11:27:13.088Z,101492.78
2024-02-03T11:29:40.426Z,101485.09
2024-02-03T11:32:08.701Z,101492.66
2024-02-03T11:34:36.888Z,101480.78
2024-02-03T11:37:05.397Z,101487.34
2024-02-03T11:39:34.006Z,101482.75
2024-02-03T11:42:03.194Z,101490.28
2024-02-03T11:44:36.293Z,101482.75
2024-02-03T11:47:04.971Z,101481.59
2024-02-03T11:49:32.533Z,101482.59
2024-02-03T11:52:00.123Z,101467.50
2024-02-03T11:54:27.532Z,101478.41
2024-02-03T11:56:55.012Z,101478.53
2024-02-03T11:59:26.933Z,101487.91
2024-02-03T12:01:56.055Z,101477.97
2024-02-03T12:04:24.461Z,101480.94
2024-02-03T12:06:51.949Z,101473.63
2024-02-03T12:09:20.160Z,101474.22
2024-02-03T12:11:47.649Z,101470.31
2024-02-03T12:14:14.859Z,101480.22
2024-02-03T12:16:42.509Z,101466.50
2024-02-03T12:19:11.308Z,101466.38
2024-02-03T12:21:39.201Z,101466.94
2024-02-03T12:24:07.639Z,101476.06
2024-02-03T12:26:35.474Z,101468.38
2024-02-03T12:29:02.936Z,101466.31
2024-02-03T12:31:30.350Z,101460.41
2024-02-03T12:33:57.840Z,101462.94
2024-02-03T12:36:26.718Z,101472.44
2024-02-03T12:38:54.046Z,101464.03
2024-02-03T12:41:21.691Z,101462.34
2024-02-03T12:43:49.000Z,101474.81
2024-02-03T12:46:16.373Z,101467.38
2024-02-03T12:48:44.000Z,101464.88
2024-02-03T12:51:11.673Z,101460.94
2024-02-03T12:53:40.702Z,101468.53
2024-02-03T12:56:08.306Z,101464.50
2024-02-03T12:58:35.664Z,101465.31
2024-02-03T13:01:03.155Z,101464.34
2024-02-03T13:03:30.710Z,101466.47
2024-02-03T13:05:58.219Z,101467.03
2024-02-03T13:08:25.755Z,101474.44
2024-02-03T13:10:54.501Z,101463.56
2024-02-03T13:13:21.860Z,101469.56
2024-02-03T13:15:49.319Z,101466.19
2024-02-03T13:18:16.771Z,101471.50
2024-02-03T13:20:44.129Z,101467.88
2024-02-03T13:23:11.455Z,101467.63
2024-02-03T13:25:38.776Z,101476.56
2024-02-03T13:28:09.295Z,101469.16
2024-02-03T13:30:36.623Z,101471.25
2024-02-03T13:33:04.795Z,101474.88
2024-02-03T13:35:32.309Z,101471.06
2024-02-03T13:37:59.726Z,101461.16
2024-02-03T13:40:27.106Z,101465.97
2024-02-03T13:42:54.715Z,101471.75
2024-02-03T13:45:23.822Z,101467.34
2024-02-03T13:47:51.591Z,101469.38
2024-02-03T13:50:19.393Z,101465.06
2024-02-03T13:52:46.947Z,101477.59
2024-02-03T13:55:14.576Z,101470.88
2024-02-03T13:57:42.198Z,101465.44
2024-02-03T14:00:10.401Z,101470.63
2024-02-03T14:02:39.397Z,101464.84
2024-02-03T14:05:07.378Z,101463.19
2024-02-03T14:07:34.714Z,101465.81
2024-02-03T14:10:02.203Z,101465.38
2024-02-03T14:12:29.588Z,101459.81
2024-02-03T14:14:57.093Z,101458.13
2024-02-03T14:17:24.396Z,101449.66
2024-02-03T14:19:53.139Z,101454.72
2024-02-03T14:22:20.493Z,101461.31
2024-02-03T14:24:47.912Z,101462.53
2024-02-03T14:27:15.283Z,101454.72
2024-02-03T14:29:42.597Z,101463.63
2024-02-03T14:32:09.906Z,101467.00
2024-02-03T14:34:37.392Z,101461.19
2024-02-03T14:37:06.475Z,101459.91
2024-02-03T14:39:34.237Z,101456.97
2024-02-03T14:42:01.634Z,101459.03
2024-02-03T14:44:28.980Z,101456.00
2024-02-03T14:46:56.389Z,101448.19
2024-02-03T14:49:23.922Z,101458.53
2024-02-03T14:51:51.535Z,101456.53
2024-02-03T14:54:20.306Z,101461.56
2024-02-03T14:56:47.669Z,101459.50
2024-02-03T14:59:14.975Z,101461.47
2024-02-03T15:01:42.689Z,101464.56
2024-02-03T15:04:10.096Z,101480.69
2024-02-03T15:06:37.640Z,101461.72
2024-02-03T15:09:05.168Z,101469.38
2024-02-03T15:11:33.895Z,101467.16
2024-02-03T15:14:01.201Z,101469.66
2024-02-03T15:16:29.272Z,101483.31
2024-02-03T15:18:56.728Z,101476.72
2024-02-03T15:21:24.138Z,101474.84
2024-02-03T15:23:51.564Z,101478.78
2024-02-03T15:26:18.916Z,101479.75
2024-02-03T15:28:47.642Z,101480.56
2024-02-03T15:31:15.146Z,101479.03
2024-02-03T15:33:42.726Z,101480.25
2024-02-03T15:36:10.153Z,101468.94
2024-02-03T15:38:37.467Z,101486.19
2024-02-03T15:41:05.136Z,101482.56
2024-02-03T15:43:34.173Z,101468.59
2024-02-03T15:46:03.552Z,101475.84
2024-02-03T15:48:31.249Z,101476.69
2024-02-03T15:50:58.652Z,101478.97
2024-02-03T15:53:25.922Z,101478.13
2024-02-03T15:55:53.372Z,101483.41
2024-02-03T15:58:20.850Z,101486.53
2024-02-03T16:00:48.725Z,101490.84
2024-02-03T16:03:17.508Z,101481.47
2024-02-03T16:05:45.019Z,101502.22
2024-02-03T16:08:12.363Z,101492.84
2024-02-03T16:10:39.691Z,101485.56
2024-02-03T16:13:07.166Z,101493.19
2024-02-03T16:15:34.566Z,101494.91
2024-02-03T16:18:02.021Z,101505.88
2024-02-03T16:20:30.775Z,101489.44
2024-02-03T16:22:58.186Z,101496.66
2024-02-03T16:25:25.586Z,101493.75
2024-02-03T16:27:53.381Z,101496.84
2024-02-03T16:30:20.824Z,101487.63
2024-02-03T16:32:48.205Z,101495.94
2024-02-03T16:35:15.830Z,101492.72
2024-02-03T16:37:44.627Z,101496.19
2024-02-03T16:40:12.546Z,101480.88
2024-02-03T16:42:40.219Z,101486.81
2024-02-03T16:45:08.621Z,101493.31
2024-02-03T16:47:37.615Z,101494.66
2024-02-03T16:50:05.876Z,101485.16
2024-02-03T16:52:32.934Z,101486.00
2024-02-03T16:55:02.798Z,101487.38
2024-02-03T16:57:31.026Z,101491.94
2024-02-03T16:59:58.178Z,101502.84
2024-02-03T17:02:26.087Z,101499.72
2024-02-03T17:04:53.482Z,101509.00
2024-02-03T17:07:20.867Z,101507.59
2024-02-03T17:09:48.217Z,101501.47
2024-02-03T17:12:17.005Z,101509.16
2024-02-03T17:14:44.569Z,101507.59
2024-02-03T17:17:12.928Z,101504.94
2024-02-03T17:19:40.361Z,101505.78
2024-02-03T17:22:07.714Z,101501.56
2024-02-03T17:24:35.434Z,101504.47
2024-02-03T17:27:02.766Z,101505.44
2024-02-03T17:29:32.467Z,101508.94
2024-02-03T17:31:59.769Z,101506.53
2024-02-03T17:34:27.127Z,101499.53
2024-02-03T17:36:54.800Z,101497.03
2024-02-03T17:39:23.800Z,101498.09
2024-02-03T17:41:51.116Z,101502.56
2024-02-03T17:44:18.897Z,101502.81
2024-02-03T17:46:48.000Z,101499.44
2024-02-03T17:49:16.994Z,101505.56
2024-02-03T17:51:44.357Z,101508.34
2024-02-03T17:54:11.676Z,101509.06
2024-02-03T17:56:38.933Z,101509.78
2024-02-03T17:59:06.226Z,101502.09
2024-02-03T18:01:34.172Z,101505.69
2024-02-03T18:04:03.036Z,101495.09
2024-02-03T18:06:30.439Z,101502.09
2024-02-03T18:08:57.847Z,101499.19
2024-02-03T18:11:25.088Z,101491.50
2024-02-03T18:13:52.496Z,101499.06
2024-02-03T18:16:21.569Z,101488.97
2024-02-03T18:18:49.017Z,101492.09
2024-02-03T18:21:18.237Z,101489.44
2024-02-03T18:23:45.748Z,101487.16
2024-02-03T18:26:13.551Z,101492.47
2024-02-03T18:28:40.851Z,101498.00
2024-02-03T18:31:08.229Z,101498.00
2024-02-03T18:33:35.599Z,101496.19
2024-02-03T18:36:03.117Z,101494.38
2024-02-03T18:38:33.329Z,101491.91
2024-02-03T18:41:00.666Z,101491.06
2024-02-03T18:43:28.003Z,101488.53
2024-02-03T18:45:57.485Z,101485.16
2024-02-03T18:48:26.216Z,101488.19
2024-02-03T18:50:53.655Z,101484.31
2024-02-03T18:53:21.183Z,101480.22
2024-02-03T18:55:50.036Z,101486.97
2024-02-03T18:58:17.575Z,101483.84
2024-02-03T19:00:45.176Z,101486.25
2024-02-03T19:03:12.651Z,101491.66
2024-02-03T19:05:40.148Z,101490.81
2024-02-03T19:08:07.873Z,101481.44
2024-02-03T19:10:35.142Z,101486.50
2024-02-03T19:13:04.491Z,101491.53
2024-02-03T19:15:31.966Z,101495.16
2024-02-03T19:17:59.361Z,101494.31
2024-02-03T19:20:28.369Z,101493.59
2024-02-03T19:22:55.904Z,101483.38
2024-02-03T19:25:24.217Z,101493.34
2024-02-03T19:27:51.557Z,101489.84
2024-02-03T19:30:20.355Z,101499.00
2024-02-03T19:32:47.713Z,101486.38
2024-02-03T19:35:16.158Z,101495.78
2024-02-03T19:37:43.719Z,101494.00
2024-02-03T19:40:12.703Z,101487.97
2024-02-03T19:42:40.091Z,101488.31
2024-02-03T19:45:09.359Z,101490.09
2024-02-03T19:47:39.152Z,101497.59
2024-02-03T19:50:07.430Z,101503.25
2024-02-03T19:52:34.775Z,101505.97
2024-02-03T19:55:02.160Z,101503.56
2024-02-03T19:57:29.517Z,101505.63
2024-02-03T19:59:56.969Z,101502.53
2024-02-03T20:02:24.398Z,101506.00
2024-02-03T20:04:53.355Z,101507.56
2024-02-03T20:07:20.829Z,101502.16
2024-02-03T20:09:48.415Z,101498.78
2024-02-03T20:12:16.023Z,101498.91
2024-02-03T20:14:43.400Z,101497.34
2024-02-03T20:17:10.769Z,101505.03
2024-02-03T20:19:38.216Z,101510.81
2024-02-03T20:22:07.579Z,101516.09
2024-02-03T20:24:34.941Z,101520.81
2024-02-03T20:27:02.259Z,101517.78
2024-02-03T20:29:29.875Z,101522.84
2024-02-03T20:31:57.534Z,101526.44
2024-02-03T20:34:24.971Z,101525.72
2024-02-03T20:36:52.465Z,101522.94
2024-02-03T20:39:23.824Z,101527.50
2024-02-03T20:41:51.501Z,101532.31
2024-02-03T20:44:18.966Z,101532.66
2024-02-03T20:46:47.204Z,101524.84
2024-02-03T20:49:14.750Z,101522.19
2024-02-03T20:51:42.398Z,101517.03
2024-02-03T20:54:09.760Z,101511.75
2024-02-03T20:56:39.088Z,101510.91
2024-02-03T20:59:06.983Z,101495.50
2024-02-03T21:01:34.860Z,101500.78
2024-02-03T21:04:04.893Z,101498.88
2024-02-03T21:06:32.474Z,101497.41
2024-02-03T21:08:59.886Z,101494.53
2024-02-03T21:11:27.145Z,101487.44
2024-02-03T21:13:56.676Z,101483.38
2024-02-03T21:16:24.324Z,101489.97
2024-02-03T21:18:51.920Z,101485.03
2024-02-03T21:21:19.594Z,101468.44
2024-02-03T21:23:47.278Z,101475.66
2024-02-03T21:26:14.531Z,101472.78
2024-02-03T21:28:42.017Z,101475.88
2024-02-03T21:31:10.874Z,101472.16
2024-02-03T21:33:38.379Z,101473.72
2024-02-03T21:36:06.833Z,101479.94
2024-02-03T21:38:35.019Z,101475.47
2024-02-03T21:41:04.194Z,101478.09
2024-02-03T21:43:33.671Z,101481.47
2024-02-03T21:46:01.556Z,101482.31
2024-02-03T21:48:32.624Z,101481.81
2024-02-03T21:51:00.418Z,101476.53
2024-02-03T21:53:27.963Z,101488.28
2024-02-03T21:55:56.722Z,101479.84
2024-02-03T21:58:24.072Z,101496.41
2024-02-03T22:00:54.452Z,101497.97
2024-02-03T22:03:21.955Z,101499.03
2024-02-03T22:05:50.682Z,101498.53
2024-02-03T22:08:18.250Z,101501.78
2024-02-03T22:10:45.610Z,101501.16
2024-02-03T22:13:13.115Z,101485.66
2024-02-03T22:15:40.441Z,101471.38
2024-02-03T22:18:07.835Z,101489.59
2024-02-03T22:20:35.178Z,101498.56
2024-02-03T22:23:04.470Z,101495.72
2024-02-03T22:25:33.164Z,101494.34
2024-02-03T22:28:01.577Z,101508.50
2024-02-03T22:30:30.285Z,101491.97
2024-02-03T22:32:57.687Z,101490.16
2024-02-03T22:35:25.095Z,101487.16
2024-02-03T22:37:52.391Z,101471.31
2024-02-03T22:40:21.390Z,101481.16
2024-02-03T22:42:48.739Z,101491.28
2024-02-03T22:45:16.078Z,101486.72
2024-02-03T22:47:43.690Z,101478.34
2024-02-03T22:50:11.112Z,101479.66
2024-02-03T22:52:38.758Z,101482.50
2024-02-03T22:55:06.492Z,101481.66
2024-02-03T22:57:35.376Z,101481.44
2024-02-03T23:00:02.931Z,101468.34
2024-02-03T23:02:30.596Z,101473.53
2024-02-03T23:04:57.881Z,101474.25
2024-02-03T23:07:26.196Z,101478.34
2024-02-03T23:09:53.536Z,101470.44
2024-02-03T23:12:20.777Z,101472.13
2024-02-03T23:14:49.505Z,101466.84
2024-02-03T23:17:16.781Z,101462.41
2024-02-03T23:19:44.171Z,101467.69
2024-02-03T23:22:11.646Z,101462.78
2024-02-03T23:24:39.086Z,101455.81
2024-02-03T23:27:06.426Z,101460.63
2024-02-03T23:29:34.951Z,101460.78
2024-02-03T23:32:05.790Z,101469.72
2024-02-03T23:34:33.181Z,101466.00
2024-02-03T23:37:01.117Z,101459.88
2024-02-03T23:39:30.007Z,101459.88
2024-02-03T23:41:57.326Z,101447.50
2024-02-03T23:44:24.640Z,101457.94
2024-02-03T23:46:52.127Z,101453.03
2024-02-03T23:49:21.126Z,101456.84
2024-02-03T23:51:48.485Z,101457.09
2024-02-03T23:54:16.988Z,101452.66
2024-02-03T23:56:44.275Z,101459.53
2024-02-03T23:59:13.065Z,101469.13
